Flight Track Log - Related Links

Times and Time Zones

All times are in EDT time to prevent confusion due to time zone crossing. See the EJA922 flight status page for this flight to view local times or setup timezone preferences in your user account.

Time Position Orientation Groundspeed Altitude Reporting Facility
EDT Latitude Longitude Course Direction KTS MPH feet Rate Location/Type
Thu 05:33:30 PM 40.8033 -111.9633 355° North 189 217 4,900  Level Salt Lake Center
Thu 05:34:00 PM 40.8344 -111.9669 355° North 223 257 6,200 3,231 Climbing Salt Lake Center
Thu 05:35:01 PM 40.9031 -111.9778 353° North 260 299 9,800 3,781 Climbing Salt Lake Center
Thu 05:36:26 PM 41.0019 -111.9539 10° North 294 338 15,400 3,041 Climbing Salt Lake Center
Thu 05:37:29 PM 40.9928 -111.8503 97° East 325 374 17,300 1,645 Climbing Salt Lake Center
Thu 05:38:30 PM 40.9131 -111.7275 131° Southeast 382 440 18,800 1,610 Climbing Salt Lake Center
Thu 05:39:32 PM 40.8431 -111.6133 129° Southeast 402 463 20,600 1,742 Climbing Salt Lake Center
Thu 05:40:34 PM 40.8083 -111.4686 108° East 420 483 22,400 1,742 Climbing Salt Lake Center
Thu 05:41:36 PM 40.7756 -111.3197 106° East 426 490 24,200 1,935 Climbing Salt Lake Center
Thu 05:42:38 PM 40.7336 -111.1406 107° East 428 493 26,400 1,839 Climbing Salt Lake Center
Thu 05:43:40 PM 40.6989 -110.9869 107° East 436 502 28,000 1,452 Climbing Salt Lake Center
Thu 05:44:42 PM 40.6619 -110.8275 107° East 452 520 29,400 1,355 Climbing Salt Lake Center
Thu 05:45:44 PM 40.6231 -110.6617 107° East 470 541 30,800 1,403 Climbing Salt Lake Center
Thu 05:46:46 PM 40.5817 -110.4789 107° East 482 555 32,300 1,452 Climbing Salt Lake Center
Thu 05:47:48 PM 40.5381 -110.2967 107° East 499 574 33,800 1,248 Climbing Salt Lake Center
Thu 05:48:51 PM 40.5036 -110.1228 105° East 510 587 34,900 576 Climbing Salt Lake Center
Thu 05:49:53 PM 40.4644 -109.9108 104° East 531 611 35,000 48 Climbing Salt Lake Center
Thu 05:50:55 PM 40.4306 -109.7317 104° East 530 610 35,000  Level Salt Lake Center
Thu 05:51:57 PM 40.3900 -109.5269 105° East 522 601 35,000  Level Salt Lake Center
Thu 05:52:59 PM 40.3567 -109.3517 104° East 518 596 35,000  Level Salt Lake Center
Thu 05:54:01 PM 40.3397 -109.1389 96° East 521 600 35,000  Level Salt Lake Center
Thu 05:55:03 PM 40.3444 -108.9544 88° East 527 606 35,000  Level Salt Lake Center
Thu 05:55:56 PM 40.3483 -108.7667 88° East 528 608 35,000  Level Denver Center
Thu 05:56:59 PM 40.3514 -108.5797 89° East 532 612 35,000  Level Denver Center
Thu 05:58:01 PM 40.3539 -108.3939 89° East 532 612 35,000  Level Denver Center
Thu 05:59:03 PM 40.3558 -108.1775 89° East 530 610 35,000  Level Denver Center
Thu 06:00:05 PM 40.3589 -107.9922 89° East 531 611 35,000  Level Denver Center
Thu 06:01:07 PM 40.3608 -107.7769 89° East 528 608 35,000  Level Denver Center
Thu 06:02:09 PM 40.3611 -107.5903 90° East 533 613 35,000  Level Denver Center
Thu 06:03:11 PM 40.3628 -107.3731 89° East 533 613 35,000  Level Denver Center
Thu 06:04:13 PM 40.3631 -107.1883 90° East 532 612 35,000  Level Denver Center
Thu 06:05:15 PM 40.3642 -106.9722 90° East 531 611 35,000  Level Denver Center
Thu 06:06:17 PM 40.3653 -106.8053 89° East 531 611 35,000  Level Denver Center
Thu 06:07:19 PM 40.3644 -106.6111 90° East 530 610 35,000  Level Denver Center
Thu 06:08:21 PM 40.3639 -106.3856 90° East 532 612 35,000 -1,104 Level Denver Center
Thu 06:09:24 PM 40.3617 -106.1683 91° East 534 615 32,700 -2,352 Descending Denver Center
Thu 06:10:26 PM 40.3619 -105.9853 90° East 531 611 30,100 -2,565 Descending Denver Center
Thu 06:11:28 PM 40.3622 -105.8022 90° East 513 590 27,400 -2,419 Descending Denver Center
Thu 06:12:30 PM 40.3553 -105.6381 93° East 471 542 25,100 -2,177 Descending Denver Center
Thu 06:13:32 PM 40.3572 -105.4933 89° East 413 475 22,900 -2,516 Descending Denver Center
Thu 06:14:34 PM 40.3011 -105.3497 117° Southeast 388 447 19,900 -2,226 Descending Denver Center
Thu 06:15:36 PM 40.2167 -105.2850 150° Southeast 360 414 18,300 -1,548 Descending Denver Center
Thu 06:16:38 PM 40.1186 -105.2328 158° South 358 412 16,700 -1,694 Descending Denver Center
Thu 06:17:40 PM 40.0278 -105.1883 159° South 352 405 14,800 -1,935 Descending Denver Center
Thu 06:18:42 PM 39.9350 -105.1419 159° South 334 384 12,700 -1,887 Descending Denver Center
Thu 06:19:44 PM 39.8583 -105.0864 151° Southeast 317 365 10,900 -1,694 Descending Denver Center
Thu 06:20:46 PM 39.7819 -105.0256 149° Southeast 303 349 9,200 -1,403 Descending Denver Center
Thu 06:21:48 PM 39.7044 -105.0106 172° South 284 327 8,000 -576 Descending Denver Center
Thu 06:22:51 PM 39.6306 -104.9975 172° South 253 291 8,000  Level Denver Center
Thu 06:23:53 PM 39.5639 -104.9828 170° South 244 281 8,000 -145 Level Denver Center
Thu 06:24:55 PM 39.5297 -104.9350 133° Southeast 178 205 7,700 -484 Descending Denver Center
Thu 06:25:57 PM 39.5242 -104.8797 97° East 160 184 7,000 -823 Descending Denver Center
Thu 06:26:59 PM 39.5483 -104.8489 45° Northeast 145 167 6,000 -968 Descending Denver Center

Login

Don't have an account? Register now (free) for customized features, flight alerts, and more!